sensor_id;sensor_type;location;lat;lon;timestamp;P1;durP1;ratioP1;P2;durP2;ratioP2
59770;SDS011;45649;53.014;6.600;2023-06-19T00:00:55;7.70;;;7.10;;
59770;SDS011;45649;53.014;6.600;2023-06-19T00:03:21;8.30;;;7.50;;
59770;SDS011;45649;53.014;6.600;2023-06-19T00:05:46;7.57;;;6.90;;
59770;SDS011;45649;53.014;6.600;2023-06-19T00:08:12;8.07;;;7.43;;
59770;SDS011;45649;53.014;6.600;2023-06-19T00:10:38;8.20;;;7.40;;
59770;SDS011;45649;53.014;6.600;2023-06-19T00:13:03;8.13;;;7.30;;
59770;SDS011;45649;53.014;6.600;2023-06-19T00:15:29;8.00;;;7.20;;
59770;SDS011;45649;53.014;6.600;2023-06-19T00:17:56;8.07;;;7.47;;
59770;SDS011;45649;53.014;6.600;2023-06-19T00:20:22;7.83;;;7.03;;
59770;SDS011;45649;53.014;6.600;2023-06-19T00:22:48;7.57;;;6.90;;
59770;SDS011;45649;53.014;6.600;2023-06-19T00:25:17;7.90;;;7.23;;
59770;SDS011;45649;53.014;6.600;2023-06-19T00:27:44;8.20;;;7.50;;
59770;SDS011;45649;53.014;6.600;2023-06-19T00:30:10;7.60;;;6.80;;
59770;SDS011;45649;53.014;6.600;2023-06-19T00:32:36;7.53;;;6.93;;
59770;SDS011;45649;53.014;6.600;2023-06-19T00:35:14;7.83;;;7.17;;
59770;SDS011;45649;53.014;6.600;2023-06-19T00:37:41;7.70;;;7.00;;
59770;SDS011;45649;53.014;6.600;2023-06-19T00:40:31;7.77;;;6.90;;
59770;SDS011;45649;53.014;6.600;2023-06-19T00:42:57;7.60;;;7.00;;
59770;SDS011;45649;53.014;6.600;2023-06-19T00:45:23;7.90;;;7.20;;
59770;SDS011;45649;53.014;6.600;2023-06-19T00:47:51;7.67;;;7.00;;
59770;SDS011;45649;53.014;6.600;2023-06-19T00:50:21;8.00;;;7.13;;
59770;SDS011;45649;53.014;6.600;2023-06-19T00:52:47;7.17;;;6.67;;
59770;SDS011;45649;53.014;6.600;2023-06-19T00:55:13;8.90;;;6.67;;
59770;SDS011;45649;53.014;6.600;2023-06-19T00:57:41;7.63;;;7.00;;
59770;SDS011;45649;53.014;6.600;2023-06-19T01:00:07;7.23;;;6.70;;
59770;SDS011;45649;53.014;6.600;2023-06-19T01:02:36;7.30;;;6.60;;
59770;SDS011;45649;53.014;6.600;2023-06-19T01:05:02;7.13;;;6.63;;
59770;SDS011;45649;53.014;6.600;2023-06-19T01:07:42;7.97;;;7.20;;
59770;SDS011;45649;53.014;6.600;2023-06-19T01:10:11;7.87;;;7.23;;
59770;SDS011;45649;53.014;6.600;2023-06-19T01:12:41;7.70;;;7.00;;
59770;SDS011;45649;53.014;6.600;2023-06-19T01:15:15;7.47;;;6.77;;
59770;SDS011;45649;53.014;6.600;2023-06-19T01:17:42;7.03;;;6.43;;
59770;SDS011;45649;53.014;6.600;2023-06-19T01:20:10;7.70;;;7.00;;
59770;SDS011;45649;53.014;6.600;2023-06-19T01:22:36;8.13;;;7.30;;
59770;SDS011;45649;53.014;6.600;2023-06-19T01:25:02;7.83;;;7.13;;
59770;SDS011;45649;53.014;6.600;2023-06-19T01:27:30;8.17;;;7.47;;
59770;SDS011;45649;53.014;6.600;2023-06-19T01:29:57;7.97;;;7.27;;
59770;SDS011;45649;53.014;6.600;2023-06-19T01:35:22;8.00;;;7.17;;
59770;SDS011;45649;53.014;6.600;2023-06-19T01:37:51;7.13;;;6.53;;
59770;SDS011;45649;53.014;6.600;2023-06-19T01:40:18;7.70;;;7.00;;
59770;SDS011;45649;53.014;6.600;2023-06-19T01:42:49;9.23;;;7.10;;
59770;SDS011;45649;53.014;6.600;2023-06-19T01:45:16;7.43;;;6.73;;
59770;SDS011;45649;53.014;6.600;2023-06-19T01:47:42;7.77;;;7.10;;
59770;SDS011;45649;53.014;6.600;2023-06-19T01:50:08;6.80;;;6.30;;
59770;SDS011;45649;53.014;6.600;2023-06-19T01:52:35;7.07;;;6.37;;
59770;SDS011;45649;53.014;6.600;2023-06-19T01:55:01;6.93;;;6.33;;
59770;SDS011;45649;53.014;6.600;2023-06-19T01:57:27;8.07;;;7.37;;
59770;SDS011;45649;53.014;6.600;2023-06-19T01:59:53;8.37;;;6.97;;
59770;SDS011;45649;53.014;6.600;2023-06-19T02:02:19;8.00;;;7.00;;
59770;SDS011;45649;53.014;6.600;2023-06-19T02:04:44;6.63;;;6.13;;
59770;SDS011;45649;53.014;6.600;2023-06-19T02:07:10;7.60;;;6.90;;
59770;SDS011;45649;53.014;6.600;2023-06-19T02:09:37;7.70;;;7.03;;
59770;SDS011;45649;53.014;6.600;2023-06-19T02:12:04;7.33;;;6.60;;
59770;SDS011;45649;53.014;6.600;2023-06-19T02:14:29;7.83;;;7.03;;
59770;SDS011;45649;53.014;6.600;2023-06-19T02:16:55;7.73;;;6.87;;
59770;SDS011;45649;53.014;6.600;2023-06-19T02:19:21;7.43;;;6.63;;
59770;SDS011;45649;53.014;6.600;2023-06-19T02:21:47;7.00;;;6.40;;
59770;SDS011;45649;53.014;6.600;2023-06-19T02:24:13;7.40;;;6.80;;
59770;SDS011;45649;53.014;6.600;2023-06-19T02:26:38;7.50;;;6.90;;
59770;SDS011;45649;53.014;6.600;2023-06-19T02:29:04;7.30;;;6.60;;
59770;SDS011;45649;53.014;6.600;2023-06-19T02:31:30;7.30;;;6.60;;
59770;SDS011;45649;53.014;6.600;2023-06-19T02:33:56;7.70;;;7.00;;
59770;SDS011;45649;53.014;6.600;2023-06-19T02:36:22;7.03;;;6.33;;
59770;SDS011;45649;53.014;6.600;2023-06-19T02:38:48;8.00;;;7.20;;
59770;SDS011;45649;53.014;6.600;2023-06-19T02:41:14;7.07;;;6.37;;
59770;SDS011;45649;53.014;6.600;2023-06-19T02:43:44;7.40;;;6.77;;
59770;SDS011;45649;53.014;6.600;2023-06-19T02:46:13;7.57;;;6.83;;
59770;SDS011;45649;53.014;6.600;2023-06-19T02:48:39;7.70;;;7.00;;
59770;SDS011;45649;53.014;6.600;2023-06-19T02:51:05;7.93;;;7.23;;
59770;SDS011;45649;53.014;6.600;2023-06-19T02:53:30;8.20;;;7.40;;
59770;SDS011;45649;53.014;6.600;2023-06-19T02:55:56;7.07;;;6.47;;
59770;SDS011;45649;53.014;6.600;2023-06-19T02:58:22;7.23;;;6.53;;
59770;SDS011;45649;53.014;6.600;2023-06-19T03:00:48;7.80;;;7.10;;
59770;SDS011;45649;53.014;6.600;2023-06-19T03:03:13;7.70;;;6.90;;
59770;SDS011;45649;53.014;6.600;2023-06-19T03:05:39;7.80;;;7.10;;
59770;SDS011;45649;53.014;6.600;2023-06-19T03:08:05;7.27;;;6.67;;
59770;SDS011;45649;53.014;6.600;2023-06-19T03:10:33;7.47;;;6.87;;
59770;SDS011;45649;53.014;6.600;2023-06-19T03:12:58;7.50;;;6.80;;
59770;SDS011;45649;53.014;6.600;2023-06-19T03:15:24;7.73;;;7.13;;
59770;SDS011;45649;53.014;6.600;2023-06-19T03:17:52;8.27;;;7.20;;
59770;SDS011;45649;53.014;6.600;2023-06-19T03:20:17;7.90;;;7.10;;
59770;SDS011;45649;53.014;6.600;2023-06-19T03:22:43;7.43;;;6.83;;
59770;SDS011;45649;53.014;6.600;2023-06-19T03:25:09;7.27;;;6.57;;
59770;SDS011;45649;53.014;6.600;2023-06-19T03:27:35;7.50;;;6.90;;
59770;SDS011;45649;53.014;6.600;2023-06-19T03:30:02;7.73;;;7.03;;
59770;SDS011;45649;53.014;6.600;2023-06-19T03:32:31;7.30;;;6.70;;
59770;SDS011;45649;53.014;6.600;2023-06-19T03:34:58;7.27;;;6.67;;
59770;SDS011;45649;53.014;6.600;2023-06-19T03:37:24;7.43;;;6.70;;
59770;SDS011;45649;53.014;6.600;2023-06-19T03:39:50;6.60;;;6.00;;
59770;SDS011;45649;53.014;6.600;2023-06-19T03:42:16;6.70;;;6.20;;
59770;SDS011;45649;53.014;6.600;2023-06-19T03:44:41;7.13;;;6.43;;
59770;SDS011;45649;53.014;6.600;2023-06-19T03:47:07;7.73;;;6.70;;
59770;SDS011;45649;53.014;6.600;2023-06-19T03:49:33;7.23;;;6.50;;
59770;SDS011;45649;53.014;6.600;2023-06-19T03:51:59;6.30;;;5.70;;
59770;SDS011;45649;53.014;6.600;2023-06-19T03:54:24;6.47;;;5.93;;
59770;SDS011;45649;53.014;6.600;2023-06-19T03:56:51;4.83;;;4.53;;
59770;SDS011;45649;53.014;6.600;2023-06-19T03:59:17;5.57;;;5.17;;
59770;SDS011;45649;53.014;6.600;2023-06-19T04:01:43;5.10;;;4.60;;
59770;SDS011;45649;53.014;6.600;2023-06-19T04:04:08;5.20;;;4.80;;
59770;SDS011;45649;53.014;6.600;2023-06-19T04:06:34;4.60;;;4.20;;
59770;SDS011;45649;53.014;6.600;2023-06-19T04:09:00;4.93;;;4.20;;
59770;SDS011;45649;53.014;6.600;2023-06-19T04:11:26;4.30;;;4.00;;
59770;SDS011;45649;53.014;6.600;2023-06-19T04:13:51;4.47;;;4.07;;
59770;SDS011;45649;53.014;6.600;2023-06-19T04:16:17;4.70;;;4.37;;
59770;SDS011;45649;53.014;6.600;2023-06-19T04:18:43;4.63;;;4.10;;
59770;SDS011;45649;53.014;6.600;2023-06-19T04:21:08;4.47;;;4.17;;
59770;SDS011;45649;53.014;6.600;2023-06-19T04:23:34;4.07;;;3.77;;
59770;SDS011;45649;53.014;6.600;2023-06-19T04:26:00;4.60;;;4.20;;
59770;SDS011;45649;53.014;6.600;2023-06-19T04:28:25;4.47;;;3.87;;
59770;SDS011;45649;53.014;6.600;2023-06-19T04:30:51;4.50;;;3.90;;
59770;SDS011;45649;53.014;6.600;2023-06-19T04:33:25;4.17;;;3.87;;
59770;SDS011;45649;53.014;6.600;2023-06-19T04:35:52;4.40;;;3.93;;
59770;SDS011;45649;53.014;6.600;2023-06-19T04:38:20;4.60;;;4.20;;
59770;SDS011;45649;53.014;6.600;2023-06-19T04:40:49;5.47;;;3.53;;
59770;SDS011;45649;53.014;6.600;2023-06-19T04:43:17;4.27;;;3.87;;
59770;SDS011;45649;53.014;6.600;2023-06-19T04:45:43;5.03;;;4.10;;
59770;SDS011;45649;53.014;6.600;2023-06-19T04:48:09;4.03;;;3.73;;
59770;SDS011;45649;53.014;6.600;2023-06-19T04:50:36;5.03;;;3.53;;
59770;SDS011;45649;53.014;6.600;2023-06-19T04:53:02;5.30;;;4.13;;
59770;SDS011;45649;53.014;6.600;2023-06-19T04:55:28;4.33;;;3.93;;
59770;SDS011;45649;53.014;6.600;2023-06-19T04:57:54;4.27;;;3.80;;
59770;SDS011;45649;53.014;6.600;2023-06-19T05:00:20;4.23;;;3.80;;
59770;SDS011;45649;53.014;6.600;2023-06-19T05:02:48;5.17;;;3.73;;
59770;SDS011;45649;53.014;6.600;2023-06-19T05:05:14;3.60;;;3.30;;
59770;SDS011;45649;53.014;6.600;2023-06-19T05:07:40;4.13;;;3.83;;
59770;SDS011;45649;53.014;6.600;2023-06-19T05:10:07;4.20;;;3.90;;
59770;SDS011;45649;53.014;6.600;2023-06-19T05:12:36;3.67;;;3.43;;
59770;SDS011;45649;53.014;6.600;2023-06-19T05:15:02;4.37;;;3.87;;
59770;SDS011;45649;53.014;6.600;2023-06-19T05:17:28;4.17;;;3.87;;
59770;SDS011;45649;53.014;6.600;2023-06-19T05:19:54;4.10;;;3.80;;
59770;SDS011;45649;53.014;6.600;2023-06-19T05:22:20;3.70;;;3.40;;
59770;SDS011;45649;53.014;6.600;2023-06-19T05:24:46;4.00;;;3.70;;
59770;SDS011;45649;53.014;6.600;2023-06-19T05:27:12;4.30;;;3.90;;
59770;SDS011;45649;53.014;6.600;2023-06-19T05:29:38;4.40;;;3.57;;
59770;SDS011;45649;53.014;6.600;2023-06-19T05:32:04;4.33;;;3.80;;
59770;SDS011;45649;53.014;6.600;2023-06-19T05:34:30;4.63;;;3.97;;
59770;SDS011;45649;53.014;6.600;2023-06-19T05:36:55;4.07;;;3.77;;
59770;SDS011;45649;53.014;6.600;2023-06-19T05:39:22;4.07;;;3.87;;
59770;SDS011;45649;53.014;6.600;2023-06-19T05:41:47;4.00;;;3.70;;
59770;SDS011;45649;53.014;6.600;2023-06-19T05:44:13;4.43;;;3.90;;
59770;SDS011;45649;53.014;6.600;2023-06-19T05:46:44;5.03;;;4.40;;
59770;SDS011;45649;53.014;6.600;2023-06-19T05:49:09;5.00;;;4.60;;
59770;SDS011;45649;53.014;6.600;2023-06-19T05:51:35;6.83;;;4.50;;
59770;SDS011;45649;53.014;6.600;2023-06-19T05:54:01;5.67;;;4.57;;
59770;SDS011;45649;53.014;6.600;2023-06-19T05:56:29;6.90;;;5.10;;
59770;SDS011;45649;53.014;6.600;2023-06-19T05:58:58;5.17;;;4.77;;
59770;SDS011;45649;53.014;6.600;2023-06-19T06:01:27;5.20;;;4.70;;
59770;SDS011;45649;53.014;6.600;2023-06-19T06:03:54;4.87;;;4.47;;
59770;SDS011;45649;53.014;6.600;2023-06-19T06:06:22;5.67;;;4.90;;
59770;SDS011;45649;53.014;6.600;2023-06-19T06:08:48;5.73;;;5.27;;
59770;SDS011;45649;53.014;6.600;2023-06-19T06:11:14;5.20;;;4.70;;
59770;SDS011;45649;53.014;6.600;2023-06-19T06:13:40;6.93;;;4.80;;
59770;SDS011;45649;53.014;6.600;2023-06-19T06:16:06;4.93;;;4.50;;
59770;SDS011;45649;53.014;6.600;2023-06-19T06:18:31;4.10;;;3.80;;
59770;SDS011;45649;53.014;6.600;2023-06-19T06:20:57;9.57;;;4.40;;
59770;SDS011;45649;53.014;6.600;2023-06-19T06:23:24;4.73;;;4.20;;
59770;SDS011;45649;53.014;6.600;2023-06-19T06:25:50;4.73;;;4.20;;
59770;SDS011;45649;53.014;6.600;2023-06-19T06:28:16;5.13;;;4.77;;
59770;SDS011;45649;53.014;6.600;2023-06-19T06:30:42;4.77;;;3.60;;
59770;SDS011;45649;53.014;6.600;2023-06-19T06:33:08;4.47;;;4.13;;
59770;SDS011;45649;53.014;6.600;2023-06-19T06:35:34;3.83;;;3.57;;
59770;SDS011;45649;53.014;6.600;2023-06-19T06:38:01;3.80;;;3.57;;
59770;SDS011;45649;53.014;6.600;2023-06-19T06:40:27;5.73;;;4.50;;
59770;SDS011;45649;53.014;6.600;2023-06-19T06:42:53;4.60;;;4.27;;
59770;SDS011;45649;53.014;6.600;2023-06-19T06:45:19;4.20;;;3.90;;
59770;SDS011;45649;53.014;6.600;2023-06-19T06:47:44;5.97;;;4.40;;
59770;SDS011;45649;53.014;6.600;2023-06-19T06:50:10;4.97;;;4.47;;
59770;SDS011;45649;53.014;6.600;2023-06-19T06:52:36;6.23;;;5.53;;
59770;SDS011;45649;53.014;6.600;2023-06-19T06:55:03;9.23;;;5.17;;
59770;SDS011;45649;53.014;6.600;2023-06-19T06:57:29;7.03;;;6.43;;
59770;SDS011;45649;53.014;6.600;2023-06-19T06:59:55;8.40;;;7.60;;
59770;SDS011;45649;53.014;6.600;2023-06-19T07:02:21;6.93;;;6.33;;
59770;SDS011;45649;53.014;6.600;2023-06-19T07:04:46;10.23;;;9.27;;
59770;SDS011;45649;53.014;6.600;2023-06-19T07:07:12;10.53;;;9.50;;
59770;SDS011;45649;53.014;6.600;2023-06-19T07:09:38;8.77;;;7.97;;
59770;SDS011;45649;53.014;6.600;2023-06-19T07:12:04;11.27;;;7.90;;
59770;SDS011;45649;53.014;6.600;2023-06-19T07:14:32;12.70;;;11.40;;
59770;SDS011;45649;53.014;6.600;2023-06-19T07:16:57;13.60;;;10.53;;
59770;SDS011;45649;53.014;6.600;2023-06-19T07:19:23;15.27;;;10.57;;
59770;SDS011;45649;53.014;6.600;2023-06-19T07:21:52;12.30;;;9.30;;
59770;SDS011;45649;53.014;6.600;2023-06-19T07:24:18;11.37;;;10.17;;
59770;SDS011;45649;53.014;6.600;2023-06-19T07:26:45;10.97;;;9.80;;
59770;SDS011;45649;53.014;6.600;2023-06-19T07:29:12;10.97;;;8.67;;
59770;SDS011;45649;53.014;6.600;2023-06-19T07:31:37;11.27;;;9.13;;
59770;SDS011;45649;53.014;6.600;2023-06-19T07:34:03;10.57;;;9.47;;
59770;SDS011;45649;53.014;6.600;2023-06-19T07:36:29;10.83;;;9.17;;
59770;SDS011;45649;53.014;6.600;2023-06-19T07:38:54;9.37;;;8.20;;
59770;SDS011;45649;53.014;6.600;2023-06-19T07:41:21;9.43;;;8.47;;
59770;SDS011;45649;53.014;6.600;2023-06-19T07:43:46;10.03;;;7.87;;
59770;SDS011;45649;53.014;6.600;2023-06-19T07:46:12;9.27;;;6.77;;
59770;SDS011;45649;53.014;6.600;2023-06-19T07:48:38;9.37;;;8.07;;
59770;SDS011;45649;53.014;6.600;2023-06-19T07:51:04;8.53;;;6.87;;
59770;SDS011;45649;53.014;6.600;2023-06-19T07:53:29;7.17;;;6.43;;
59770;SDS011;45649;53.014;6.600;2023-06-19T07:55:55;6.63;;;6.03;;
59770;SDS011;45649;53.014;6.600;2023-06-19T07:58:21;7.57;;;6.30;;
59770;SDS011;45649;53.014;6.600;2023-06-19T08:00:47;6.90;;;6.20;;
59770;SDS011;45649;53.014;6.600;2023-06-19T08:03:13;6.33;;;5.73;;
59770;SDS011;45649;53.014;6.600;2023-06-19T08:05:39;6.30;;;5.70;;
59770;SDS011;45649;53.014;6.600;2023-06-19T08:08:04;6.00;;;5.10;;
59770;SDS011;45649;53.014;6.600;2023-06-19T08:10:30;5.90;;;5.40;;
59770;SDS011;45649;53.014;6.600;2023-06-19T08:12:56;6.27;;;5.77;;
59770;SDS011;45649;53.014;6.600;2023-06-19T08:15:21;5.70;;;5.20;;
59770;SDS011;45649;53.014;6.600;2023-06-19T08:17:47;5.20;;;4.70;;
59770;SDS011;45649;53.014;6.600;2023-06-19T08:20:13;4.77;;;4.37;;
59770;SDS011;45649;53.014;6.600;2023-06-19T08:22:38;4.93;;;4.47;;
59770;SDS011;45649;53.014;6.600;2023-06-19T08:25:04;5.03;;;4.33;;
59770;SDS011;45649;53.014;6.600;2023-06-19T08:27:30;4.97;;;4.30;;
59770;SDS011;45649;53.014;6.600;2023-06-19T08:29:56;6.13;;;4.17;;
59770;SDS011;45649;53.014;6.600;2023-06-19T08:32:22;4.50;;;4.17;;
59770;SDS011;45649;53.014;6.600;2023-06-19T08:34:48;4.83;;;4.33;;
59770;SDS011;45649;53.014;6.600;2023-06-19T08:37:13;4.40;;;4.10;;
59770;SDS011;45649;53.014;6.600;2023-06-19T08:39:39;4.63;;;4.23;;
59770;SDS011;45649;53.014;6.600;2023-06-19T08:42:06;5.37;;;4.83;;
59770;SDS011;45649;53.014;6.600;2023-06-19T08:44:33;6.60;;;4.80;;
59770;SDS011;45649;53.014;6.600;2023-06-19T08:47:02;4.77;;;4.37;;
59770;SDS011;45649;53.014;6.600;2023-06-19T08:49:33;4.80;;;4.50;;
59770;SDS011;45649;53.014;6.600;2023-06-19T08:52:03;5.00;;;4.60;;
59770;SDS011;45649;53.014;6.600;2023-06-19T08:54:29;8.03;;;4.70;;
59770;SDS011;45649;53.014;6.600;2023-06-19T08:56:54;5.80;;;5.30;;
59770;SDS011;45649;53.014;6.600;2023-06-19T08:59:20;6.43;;;5.30;;
59770;SDS011;45649;53.014;6.600;2023-06-19T09:01:47;5.60;;;4.63;;
59770;SDS011;45649;53.014;6.600;2023-06-19T09:04:18;5.30;;;4.80;;
59770;SDS011;45649;53.014;6.600;2023-06-19T09:06:51;5.70;;;5.20;;
59770;SDS011;45649;53.014;6.600;2023-06-19T09:09:19;6.20;;;4.90;;
59770;SDS011;45649;53.014;6.600;2023-06-19T09:14:35;5.50;;;5.00;;
59770;SDS011;45649;53.014;6.600;2023-06-19T09:17:12;5.90;;;4.73;;
59770;SDS011;45649;53.014;6.600;2023-06-19T09:19:52;6.27;;;5.20;;
59770;SDS011;45649;53.014;6.600;2023-06-19T09:22:21;4.63;;;4.23;;
59770;SDS011;45649;53.014;6.600;2023-06-19T09:24:47;5.87;;;4.37;;
59770;SDS011;45649;53.014;6.600;2023-06-19T09:27:14;5.37;;;4.90;;
59770;SDS011;45649;53.014;6.600;2023-06-19T09:29:44;6.30;;;5.70;;
59770;SDS011;45649;53.014;6.600;2023-06-19T09:34:48;9.77;;;6.20;;
59770;SDS011;45649;53.014;6.600;2023-06-19T09:37:16;8.57;;;5.70;;
59770;SDS011;45649;53.014;6.600;2023-06-19T09:39:57;9.27;;;5.57;;
59770;SDS011;45649;53.014;6.600;2023-06-19T09:42:35;10.83;;;6.53;;
59770;SDS011;45649;53.014;6.600;2023-06-19T09:45:03;7.17;;;6.47;;
59770;SDS011;45649;53.014;6.600;2023-06-19T09:50:11;9.10;;;7.73;;
59770;SDS011;45649;53.014;6.600;2023-06-19T09:52:38;7.27;;;6.53;;
59770;SDS011;45649;53.014;6.600;2023-06-19T09:55:06;7.03;;;6.40;;
59770;SDS011;45649;53.014;6.600;2023-06-19T09:57:33;8.30;;;7.13;;
59770;SDS011;45649;53.014;6.600;2023-06-19T10:00:01;5.77;;;5.23;;
59770;SDS011;45649;53.014;6.600;2023-06-19T10:02:36;7.57;;;6.53;;
59770;SDS011;45649;53.014;6.600;2023-06-19T10:05:03;10.53;;;6.83;;
59770;SDS011;45649;53.014;6.600;2023-06-19T10:07:33;7.77;;;6.97;;
59770;SDS011;45649;53.014;6.600;2023-06-19T10:10:01;7.60;;;6.33;;
59770;SDS011;45649;53.014;6.600;2023-06-19T10:12:41;6.77;;;6.17;;
59770;SDS011;45649;53.014;6.600;2023-06-19T10:17:47;7.20;;;6.60;;
59770;SDS011;45649;53.014;6.600;2023-06-19T10:20:27;7.23;;;6.60;;
59770;SDS011;45649;53.014;6.600;2023-06-19T10:22:57;6.57;;;5.93;;
59770;SDS011;45649;53.014;6.600;2023-06-19T10:25:23;7.37;;;6.67;;
59770;SDS011;45649;53.014;6.600;2023-06-19T10:27:52;8.60;;;7.67;;
59770;SDS011;45649;53.014;6.600;2023-06-19T10:30:21;9.07;;;6.83;;
59770;SDS011;45649;53.014;6.600;2023-06-19T10:32:47;7.90;;;6.90;;
59770;SDS011;45649;53.014;6.600;2023-06-19T10:35:17;10.23;;;8.90;;
59770;SDS011;45649;53.014;6.600;2023-06-19T10:37:46;9.20;;;8.30;;
59770;SDS011;45649;53.014;6.600;2023-06-19T10:40:13;10.37;;;9.10;;
59770;SDS011;45649;53.014;6.600;2023-06-19T10:42:39;9.47;;;8.50;;
59770;SDS011;45649;53.014;6.600;2023-06-19T10:45:08;10.33;;;8.67;;
59770;SDS011;45649;53.014;6.600;2023-06-19T10:47:40;9.43;;;8.40;;
59770;SDS011;45649;53.014;6.600;2023-06-19T10:50:09;9.83;;;7.97;;
59770;SDS011;45649;53.014;6.600;2023-06-19T10:52:43;9.83;;;8.83;;
59770;SDS011;45649;53.014;6.600;2023-06-19T10:55:10;9.43;;;8.10;;
59770;SDS011;45649;53.014;6.600;2023-06-19T10:57:36;7.90;;;7.20;;
59770;SDS011;45649;53.014;6.600;2023-06-19T11:00:03;7.57;;;6.87;;
59770;SDS011;45649;53.014;6.600;2023-06-19T11:02:47;8.17;;;7.37;;
59770;SDS011;45649;53.014;6.600;2023-06-19T11:05:12;7.53;;;6.73;;
59770;SDS011;45649;53.014;6.600;2023-06-19T11:07:39;6.60;;;6.00;;
59770;SDS011;45649;53.014;6.600;2023-06-19T11:10:04;6.90;;;6.20;;
59770;SDS011;45649;53.014;6.600;2023-06-19T11:12:31;7.10;;;6.40;;
59770;SDS011;45649;53.014;6.600;2023-06-19T11:15:02;8.77;;;6.30;;
59770;SDS011;45649;53.014;6.600;2023-06-19T11:17:30;6.60;;;6.07;;
59770;SDS011;45649;53.014;6.600;2023-06-19T11:19:56;6.77;;;6.13;;
59770;SDS011;45649;53.014;6.600;2023-06-19T11:22:35;6.67;;;6.07;;
59770;SDS011;45649;53.014;6.600;2023-06-19T11:25:06;9.10;;;6.57;;
59770;SDS011;45649;53.014;6.600;2023-06-19T11:27:32;6.67;;;6.07;;
59770;SDS011;45649;53.014;6.600;2023-06-19T11:30:00;6.93;;;6.23;;
59770;SDS011;45649;53.014;6.600;2023-06-19T11:32:36;6.20;;;5.70;;
59770;SDS011;45649;53.014;6.600;2023-06-19T11:35:10;6.33;;;5.83;;
59770;SDS011;45649;53.014;6.600;2023-06-19T11:37:39;8.43;;;6.90;;
59770;SDS011;45649;53.014;6.600;2023-06-19T11:40:06;7.53;;;6.93;;
59770;SDS011;45649;53.014;6.600;2023-06-19T11:42:43;7.63;;;6.87;;
59770;SDS011;45649;53.014;6.600;2023-06-19T11:45:13;6.43;;;5.90;;
59770;SDS011;45649;53.014;6.600;2023-06-19T11:47:39;8.53;;;6.40;;
59770;SDS011;45649;53.014;6.600;2023-06-19T11:50:05;6.77;;;6.17;;
59770;SDS011;45649;53.014;6.600;2023-06-19T11:52:32;7.87;;;7.17;;
59770;SDS011;45649;53.014;6.600;2023-06-19T11:54:58;7.43;;;6.77;;
59770;SDS011;45649;53.014;6.600;2023-06-19T11:57:23;7.40;;;6.80;;
59770;SDS011;45649;53.014;6.600;2023-06-19T11:59:51;7.23;;;6.63;;
59770;SDS011;45649;53.014;6.600;2023-06-19T12:02:17;10.18;;;7.90;;
59770;SDS011;45649;53.014;6.600;2023-06-19T12:04:43;11.07;;;7.63;;
59770;SDS011;45649;53.014;6.600;2023-06-19T12:07:08;8.83;;;7.77;;
59770;SDS011;45649;53.014;6.600;2023-06-19T12:09:34;7.47;;;6.57;;
59770;SDS011;45649;53.014;6.600;2023-06-19T12:12:00;8.50;;;7.70;;
59770;SDS011;45649;53.014;6.600;2023-06-19T12:14:26;7.80;;;6.60;;
59770;SDS011;45649;53.014;6.600;2023-06-19T12:16:55;9.87;;;7.67;;
59770;SDS011;45649;53.014;6.600;2023-06-19T12:19:21;8.10;;;7.23;;
59770;SDS011;45649;53.014;6.600;2023-06-19T12:21:47;11.23;;;7.00;;
59770;SDS011;45649;53.014;6.600;2023-06-19T12:24:13;7.53;;;6.40;;
59770;SDS011;45649;53.014;6.600;2023-06-19T12:26:38;7.40;;;6.77;;
59770;SDS011;45649;53.014;6.600;2023-06-19T12:29:05;8.47;;;7.40;;
59770;SDS011;45649;53.014;6.600;2023-06-19T12:31:32;8.00;;;7.20;;
59770;SDS011;45649;53.014;6.600;2023-06-19T12:33:59;9.77;;;7.20;;
59770;SDS011;45649;53.014;6.600;2023-06-19T12:36:26;9.80;;;7.70;;
59770;SDS011;45649;53.014;6.600;2023-06-19T12:38:52;9.17;;;7.93;;
59770;SDS011;45649;53.014;6.600;2023-06-19T12:41:21;9.57;;;7.30;;
59770;SDS011;45649;53.014;6.600;2023-06-19T12:43:47;7.33;;;6.63;;
59770;SDS011;45649;53.014;6.600;2023-06-19T12:46:13;8.50;;;7.60;;
59770;SDS011;45649;53.014;6.600;2023-06-19T12:48:40;9.00;;;7.10;;
59770;SDS011;45649;53.014;6.600;2023-06-19T12:51:06;7.57;;;6.87;;
59770;SDS011;45649;53.014;6.600;2023-06-19T12:53:34;8.17;;;7.37;;
59770;SDS011;45649;53.014;6.600;2023-06-19T12:56:00;9.97;;;6.47;;
59770;SDS011;45649;53.014;6.600;2023-06-19T12:58:26;7.70;;;6.77;;
59770;SDS011;45649;53.014;6.600;2023-06-19T13:00:53;7.37;;;6.67;;
59770;SDS011;45649;53.014;6.600;2023-06-19T13:03:19;7.37;;;6.57;;
59770;SDS011;45649;53.014;6.600;2023-06-19T13:05:47;8.13;;;7.20;;
59770;SDS011;45649;53.014;6.600;2023-06-19T13:08:13;7.30;;;6.70;;
59770;SDS011;45649;53.014;6.600;2023-06-19T13:10:40;7.70;;;6.80;;
59770;SDS011;45649;53.014;6.600;2023-06-19T13:13:05;7.27;;;6.67;;
59770;SDS011;45649;53.014;6.600;2023-06-19T13:15:31;8.10;;;7.30;;
59770;SDS011;45649;53.014;6.600;2023-06-19T13:18:00;8.30;;;7.17;;
59770;SDS011;45649;53.014;6.600;2023-06-19T13:20:26;6.63;;;6.03;;
59770;SDS011;45649;53.014;6.600;2023-06-19T13:22:52;8.30;;;7.50;;
59770;SDS011;45649;53.014;6.600;2023-06-19T13:25:18;8.10;;;7.10;;
59770;SDS011;45649;53.014;6.600;2023-06-19T13:27:44;7.07;;;6.37;;
59770;SDS011;45649;53.014;6.600;2023-06-19T13:30:10;6.80;;;6.20;;
59770;SDS011;45649;53.014;6.600;2023-06-19T13:32:36;6.53;;;5.87;;
59770;SDS011;45649;53.014;6.600;2023-06-19T13:35:03;11.63;;;7.00;;
59770;SDS011;45649;53.014;6.600;2023-06-19T13:37:30;9.17;;;8.27;;
59770;SDS011;45649;53.014;6.600;2023-06-19T13:39:56;6.83;;;6.23;;
59770;SDS011;45649;53.014;6.600;2023-06-19T13:42:23;6.47;;;5.87;;
59770;SDS011;45649;53.014;6.600;2023-06-19T13:44:48;7.53;;;6.50;;
59770;SDS011;45649;53.014;6.600;2023-06-19T13:47:14;10.70;;;7.30;;
59770;SDS011;45649;53.014;6.600;2023-06-19T13:49:40;8.40;;;6.70;;
59770;SDS011;45649;53.014;6.600;2023-06-19T13:52:06;6.93;;;6.33;;
59770;SDS011;45649;53.014;6.600;2023-06-19T13:54:32;7.10;;;6.40;;
59770;SDS011;45649;53.014;6.600;2023-06-19T13:56:58;8.70;;;5.70;;
59770;SDS011;45649;53.014;6.600;2023-06-19T13:59:24;7.77;;;6.87;;
59770;SDS011;45649;53.014;6.600;2023-06-19T14:01:51;9.87;;;8.20;;
59770;SDS011;45649;53.014;6.600;2023-06-19T14:04:16;7.77;;;6.73;;
59770;SDS011;45649;53.014;6.600;2023-06-19T14:06:42;8.17;;;7.07;;
59770;SDS011;45649;53.014;6.600;2023-06-19T14:09:09;7.23;;;6.60;;
59770;SDS011;45649;53.014;6.600;2023-06-19T14:11:35;9.40;;;6.80;;
59770;SDS011;45649;53.014;6.600;2023-06-19T14:14:00;7.63;;;6.90;;
59770;SDS011;45649;53.014;6.600;2023-06-19T14:16:26;7.60;;;6.70;;
59770;SDS011;45649;53.014;6.600;2023-06-19T14:18:52;6.93;;;6.23;;
59770;SDS011;45649;53.014;6.600;2023-06-19T14:21:17;7.50;;;5.80;;
59770;SDS011;45649;53.014;6.600;2023-06-19T14:23:43;5.80;;;5.20;;
59770;SDS011;45649;53.014;6.600;2023-06-19T14:26:10;5.63;;;5.07;;
59770;SDS011;45649;53.014;6.600;2023-06-19T14:28:37;6.03;;;5.57;;
59770;SDS011;45649;53.014;6.600;2023-06-19T14:31:03;6.97;;;5.20;;
59770;SDS011;45649;53.014;6.600;2023-06-19T14:33:29;5.43;;;4.90;;
59770;SDS011;45649;53.014;6.600;2023-06-19T14:35:56;5.30;;;4.80;;
59770;SDS011;45649;53.014;6.600;2023-06-19T14:38:21;5.60;;;5.13;;
59770;SDS011;45649;53.014;6.600;2023-06-19T14:40:49;5.73;;;5.23;;
59770;SDS011;45649;53.014;6.600;2023-06-19T14:43:15;5.20;;;4.70;;
59770;SDS011;45649;53.014;6.600;2023-06-19T14:45:41;6.03;;;5.00;;
59770;SDS011;45649;53.014;6.600;2023-06-19T14:48:07;5.67;;;5.17;;
59770;SDS011;45649;53.014;6.600;2023-06-19T14:50:34;5.73;;;5.10;;
59770;SDS011;45649;53.014;6.600;2023-06-19T14:53:00;5.83;;;4.90;;
59770;SDS011;45649;53.014;6.600;2023-06-19T14:55:26;6.10;;;5.50;;
59770;SDS011;45649;53.014;6.600;2023-06-19T14:57:52;4.97;;;4.53;;